sensor_id;sensor_type;location;lat;lon;timestamp;temperature;humidity
48043;DHT22;33988;47.992;8.820;2023-01-09T00:01:43;11.20;68.10
48043;DHT22;33988;47.992;8.820;2023-01-09T00:04:11;11.20;68.10
48043;DHT22;33988;47.992;8.820;2023-01-09T00:06:41;11.20;68.00
48043;DHT22;33988;47.992;8.820;2023-01-09T00:09:12;11.20;68.10
48043;DHT22;33988;47.992;8.820;2023-01-09T00:11:39;11.20;68.00
48043;DHT22;33988;47.992;8.820;2023-01-09T00:14:08;11.30;68.00
48043;DHT22;33988;47.992;8.820;2023-01-09T00:16:39;11.30;68.00
48043;DHT22;33988;47.992;8.820;2023-01-09T00:19:06;11.30;68.00
48043;DHT22;33988;47.992;8.820;2023-01-09T00:21:34;11.30;68.00
48043;DHT22;33988;47.992;8.820;2023-01-09T00:24:01;11.30;68.00
48043;DHT22;33988;47.992;8.820;2023-01-09T00:26:34;11.30;68.00
48043;DHT22;33988;47.992;8.820;2023-01-09T00:29:03;11.30;68.00
48043;DHT22;33988;47.992;8.820;2023-01-09T00:31:35;11.10;68.20
48043;DHT22;33988;47.992;8.820;2023-01-09T00:34:07;11.30;68.10
48043;DHT22;33988;47.992;8.820;2023-01-09T00:36:38;11.30;68.00
48043;DHT22;33988;47.992;8.820;2023-01-09T00:39:05;11.30;68.00
48043;DHT22;33988;47.992;8.820;2023-01-09T00:41:44;11.30;68.00
48043;DHT22;33988;47.992;8.820;2023-01-09T00:44:25;11.30;68.10
48043;DHT22;33988;47.992;8.820;2023-01-09T00:46:58;11.30;68.20
48043;DHT22;33988;47.992;8.820;2023-01-09T00:49:27;11.30;68.10
48043;DHT22;33988;47.992;8.820;2023-01-09T00:51:58;11.20;68.30
48043;DHT22;33988;47.992;8.820;2023-01-09T00:54:27;11.30;68.10
48043;DHT22;33988;47.992;8.820;2023-01-09T00:56:56;11.30;68.10
48043;DHT22;33988;47.992;8.820;2023-01-09T00:59:26;11.40;68.10
48043;DHT22;33988;47.992;8.820;2023-01-09T01:01:56;11.40;68.90
48043;DHT22;33988;47.992;8.820;2023-01-09T01:04:23;11.40;68.10
48043;DHT22;33988;47.992;8.820;2023-01-09T01:07:09;11.40;68.10
48043;DHT22;33988;47.992;8.820;2023-01-09T01:09:54;11.40;68.20
48043;DHT22;33988;47.992;8.820;2023-01-09T01:12:21;11.40;68.20
48043;DHT22;33988;47.992;8.820;2023-01-09T01:14:48;11.40;68.10
48043;DHT22;33988;47.992;8.820;2023-01-09T01:17:15;11.40;68.10
48043;DHT22;33988;47.992;8.820;2023-01-09T01:19:47;11.40;68.10
48043;DHT22;33988;47.992;8.820;2023-01-09T01:22:16;11.40;68.10
48043;DHT22;33988;47.992;8.820;2023-01-09T01:24:43;11.40;68.00
48043;DHT22;33988;47.992;8.820;2023-01-09T01:27:10;11.40;68.00
48043;DHT22;33988;47.992;8.820;2023-01-09T01:29:37;11.50;68.10
48043;DHT22;33988;47.992;8.820;2023-01-09T01:32:09;11.50;68.10
48043;DHT22;33988;47.992;8.820;2023-01-09T01:34:39;11.50;68.10
48043;DHT22;33988;47.992;8.820;2023-01-09T01:37:06;11.50;68.00
48043;DHT22;33988;47.992;8.820;2023-01-09T01:39:38;11.50;68.10
48043;DHT22;33988;47.992;8.820;2023-01-09T01:42:07;11.50;68.00
48043;DHT22;33988;47.992;8.820;2023-01-09T01:53:37;11.40;68.00
48043;DHT22;33988;47.992;8.820;2023-01-09T01:59:13;11.40;68.10
48043;DHT22;33988;47.992;8.820;2023-01-09T02:01:50;11.30;68.00
48043;DHT22;33988;47.992;8.820;2023-01-09T02:04:21;11.30;68.10
48043;DHT22;33988;47.992;8.820;2023-01-09T02:06:52;11.30;68.10
48043;DHT22;33988;47.992;8.820;2023-01-09T02:09:20;11.40;68.10
48043;DHT22;33988;47.992;8.820;2023-01-09T02:11:55;11.40;68.00
48043;DHT22;33988;47.992;8.820;2023-01-09T02:14:29;11.40;68.00
48043;DHT22;33988;47.992;8.820;2023-01-09T02:26:28;11.30;67.70
48043;DHT22;33988;47.992;8.820;2023-01-09T02:32:35;11.20;67.70
48043;DHT22;33988;47.992;8.820;2023-01-09T02:44:23;11.20;67.70
48043;DHT22;33988;47.992;8.820;2023-01-09T02:49:36;11.20;67.90
48043;DHT22;33988;47.992;8.820;2023-01-09T02:55:09;11.20;67.90
48043;DHT22;33988;47.992;8.820;2023-01-09T03:08:44;11.20;67.70
48043;DHT22;33988;47.992;8.820;2023-01-09T03:11:14;11.20;67.60
48043;DHT22;33988;47.992;8.820;2023-01-09T03:16:26;11.20;67.60
48043;DHT22;33988;47.992;8.820;2023-01-09T03:19:00;11.30;67.70
48043;DHT22;33988;47.992;8.820;2023-01-09T03:21:30;11.30;67.80
48043;DHT22;33988;47.992;8.820;2023-01-09T03:23:59;11.20;67.60
48043;DHT22;33988;47.992;8.820;2023-01-09T03:26:28;11.30;67.50
48043;DHT22;33988;47.992;8.820;2023-01-09T03:28:58;11.30;67.40
48043;DHT22;33988;47.992;8.820;2023-01-09T03:31:27;11.30;67.40
48043;DHT22;33988;47.992;8.820;2023-01-09T03:33:55;11.20;67.20
48043;DHT22;33988;47.992;8.820;2023-01-09T03:36:22;11.20;67.20
48043;DHT22;33988;47.992;8.820;2023-01-09T03:38:54;11.20;67.10
48043;DHT22;33988;47.992;8.820;2023-01-09T03:41:23;11.20;67.10
48043;DHT22;33988;47.992;8.820;2023-01-09T03:43:53;11.20;67.30
48043;DHT22;33988;47.992;8.820;2023-01-09T03:46:20;11.20;67.10
48043;DHT22;33988;47.992;8.820;2023-01-09T03:48:47;11.20;67.10
48043;DHT22;33988;47.992;8.820;2023-01-09T03:51:14;11.20;67.00
48043;DHT22;33988;47.992;8.820;2023-01-09T03:53:43;11.20;67.00
48043;DHT22;33988;47.992;8.820;2023-01-09T03:56:12;11.20;67.70
48043;DHT22;33988;47.992;8.820;2023-01-09T03:58:41;11.20;66.80
48043;DHT22;33988;47.992;8.820;2023-01-09T04:01:11;11.10;66.70
48043;DHT22;33988;47.992;8.820;2023-01-09T04:03:39;11.20;66.80
48043;DHT22;33988;47.992;8.820;2023-01-09T04:06:07;11.20;66.70
48043;DHT22;33988;47.992;8.820;2023-01-09T04:08:37;11.10;66.60
48043;DHT22;33988;47.992;8.820;2023-01-09T04:11:04;11.10;66.60
48043;DHT22;33988;47.992;8.820;2023-01-09T04:13:32;11.10;67.30
48043;DHT22;33988;47.992;8.820;2023-01-09T04:16:01;11.10;66.40
48043;DHT22;33988;47.992;8.820;2023-01-09T04:18:30;11.10;66.40
48043;DHT22;33988;47.992;8.820;2023-01-09T04:21:00;11.10;66.30
48043;DHT22;33988;47.992;8.820;2023-01-09T04:23:29;11.10;66.20
48043;DHT22;33988;47.992;8.820;2023-01-09T04:25:58;11.10;66.20
48043;DHT22;33988;47.992;8.820;2023-01-09T04:28:30;11.10;66.20
48043;DHT22;33988;47.992;8.820;2023-01-09T04:30:56;11.10;66.10
48043;DHT22;33988;47.992;8.820;2023-01-09T04:33:28;10.80;66.00
48043;DHT22;33988;47.992;8.820;2023-01-09T04:35:58;10.90;66.20
48043;DHT22;33988;47.992;8.820;2023-01-09T04:38:25;11.00;66.00
48043;DHT22;33988;47.992;8.820;2023-01-09T04:40:52;10.90;65.90
48043;DHT22;33988;47.992;8.820;2023-01-09T04:43:19;10.90;65.90
48043;DHT22;33988;47.992;8.820;2023-01-09T04:45:46;10.90;65.50
48043;DHT22;33988;47.992;8.820;2023-01-09T04:48:13;10.90;65.60
48043;DHT22;33988;47.992;8.820;2023-01-09T04:50:40;10.80;65.70
48043;DHT22;33988;47.992;8.820;2023-01-09T04:53:07;10.80;65.80
48043;DHT22;33988;47.992;8.820;2023-01-09T04:55:37;10.80;65.90
48043;DHT22;33988;47.992;8.820;2023-01-09T04:58:06;10.80;66.00
48043;DHT22;33988;47.992;8.820;2023-01-09T05:00:33;10.70;66.00
48043;DHT22;33988;47.992;8.820;2023-01-09T05:03:03;10.80;66.00
48043;DHT22;33988;47.992;8.820;2023-01-09T05:05:32;10.70;66.00
48043;DHT22;33988;47.992;8.820;2023-01-09T05:08:01;10.70;65.90
48043;DHT22;33988;47.992;8.820;2023-01-09T05:10:31;10.60;66.00
48043;DHT22;33988;47.992;8.820;2023-01-09T05:12:58;10.70;66.10
48043;DHT22;33988;47.992;8.820;2023-01-09T05:15:27;10.70;66.00
48043;DHT22;33988;47.992;8.820;2023-01-09T05:17:56;10.70;65.90
48043;DHT22;33988;47.992;8.820;2023-01-09T05:20:25;10.70;65.90
48043;DHT22;33988;47.992;8.820;2023-01-09T05:22:52;10.70;65.80
48043;DHT22;33988;47.992;8.820;2023-01-09T05:25:25;10.70;65.80
48043;DHT22;33988;47.992;8.820;2023-01-09T05:27:52;10.70;65.60
48043;DHT22;33988;47.992;8.820;2023-01-09T05:30:19;10.70;65.50
48043;DHT22;33988;47.992;8.820;2023-01-09T05:32:46;10.70;65.30
48043;DHT22;33988;47.992;8.820;2023-01-09T05:35:16;10.60;65.00
48043;DHT22;33988;47.992;8.820;2023-01-09T05:37:48;10.60;64.80
48043;DHT22;33988;47.992;8.820;2023-01-09T05:40:15;10.50;64.60
48043;DHT22;33988;47.992;8.820;2023-01-09T05:42:43;10.50;64.60
48043;DHT22;33988;47.992;8.820;2023-01-09T05:45:10;10.50;64.50
48043;DHT22;33988;47.992;8.820;2023-01-09T05:47:37;10.40;65.20
48043;DHT22;33988;47.992;8.820;2023-01-09T05:50:04;10.40;64.40
48043;DHT22;33988;47.992;8.820;2023-01-09T05:52:34;10.30;64.30
48043;DHT22;33988;47.992;8.820;2023-01-09T05:55:01;10.30;64.30
48043;DHT22;33988;47.992;8.820;2023-01-09T05:57:28;10.30;64.30
48043;DHT22;33988;47.992;8.820;2023-01-09T05:59:59;10.20;64.30
48043;DHT22;33988;47.992;8.820;2023-01-09T06:02:26;10.20;64.30
48043;DHT22;33988;47.992;8.820;2023-01-09T06:04:53;10.10;64.30
48043;DHT22;33988;47.992;8.820;2023-01-09T06:07:20;10.10;64.30
48043;DHT22;33988;47.992;8.820;2023-01-09T06:09:51;10.10;64.20
48043;DHT22;33988;47.992;8.820;2023-01-09T06:12:20;10.00;64.10
48043;DHT22;33988;47.992;8.820;2023-01-09T06:14:52;10.00;64.10
48043;DHT22;33988;47.992;8.820;2023-01-09T06:17:21;9.90;64.10
48043;DHT22;33988;47.992;8.820;2023-01-09T06:19:51;9.90;64.00
48043;DHT22;33988;47.992;8.820;2023-01-09T06:22:20;9.90;64.00
48043;DHT22;33988;47.992;8.820;2023-01-09T06:24:50;9.80;64.00
48043;DHT22;33988;47.992;8.820;2023-01-09T06:27:19;9.80;64.00
48043;DHT22;33988;47.992;8.820;2023-01-09T06:29:48;9.70;64.00
48043;DHT22;33988;47.992;8.820;2023-01-09T06:32:17;9.70;64.10
48043;DHT22;33988;47.992;8.820;2023-01-09T06:34:46;9.70;64.00
48043;DHT22;33988;47.992;8.820;2023-01-09T06:37:13;9.60;64.00
48043;DHT22;33988;47.992;8.820;2023-01-09T06:39:42;9.60;64.00
48043;DHT22;33988;47.992;8.820;2023-01-09T06:42:09;9.60;63.80
48043;DHT22;33988;47.992;8.820;2023-01-09T06:44:36;9.60;63.70
48043;DHT22;33988;47.992;8.820;2023-01-09T06:47:03;9.50;63.60
48043;DHT22;33988;47.992;8.820;2023-01-09T06:49:33;9.50;63.50
48043;DHT22;33988;47.992;8.820;2023-01-09T06:52:03;9.50;63.40
48043;DHT22;33988;47.992;8.820;2023-01-09T06:54:37;9.40;63.30
48043;DHT22;33988;47.992;8.820;2023-01-09T06:57:04;9.40;63.30
48043;DHT22;33988;47.992;8.820;2023-01-09T06:59:33;9.20;63.00
48043;DHT22;33988;47.992;8.820;2023-01-09T07:02:05;9.30;63.40
48043;DHT22;33988;47.992;8.820;2023-01-09T07:04:36;9.30;63.50
48043;DHT22;33988;47.992;8.820;2023-01-09T07:07:08;9.30;63.50
48043;DHT22;33988;47.992;8.820;2023-01-09T07:09:35;9.20;63.50
48043;DHT22;33988;47.992;8.820;2023-01-09T07:12:02;9.20;63.50
48043;DHT22;33988;47.992;8.820;2023-01-09T07:14:32;9.20;63.60
48043;DHT22;33988;47.992;8.820;2023-01-09T07:16:59;9.20;63.60
48043;DHT22;33988;47.992;8.820;2023-01-09T07:19:29;9.20;63.40
48043;DHT22;33988;47.992;8.820;2023-01-09T07:21:58;9.20;63.40
48043;DHT22;33988;47.992;8.820;2023-01-09T07:24:25;9.20;63.40
48043;DHT22;33988;47.992;8.820;2023-01-09T07:26:55;9.10;63.30
48043;DHT22;33988;47.992;8.820;2023-01-09T07:29:22;9.10;63.40
48043;DHT22;33988;47.992;8.820;2023-01-09T07:31:48;9.10;63.40
48043;DHT22;33988;47.992;8.820;2023-01-09T07:34:15;9.10;63.10
48043;DHT22;33988;47.992;8.820;2023-01-09T07:36:42;9.00;63.00
48043;DHT22;33988;47.992;8.820;2023-01-09T07:39:12;9.00;63.10
48043;DHT22;33988;47.992;8.820;2023-01-09T07:41:39;9.00;64.10
48043;DHT22;33988;47.992;8.820;2023-01-09T07:44:06;9.00;63.20
48043;DHT22;33988;47.992;8.820;2023-01-09T07:46:36;8.90;63.10
48043;DHT22;33988;47.992;8.820;2023-01-09T07:49:06;8.80;63.30
48043;DHT22;33988;47.992;8.820;2023-01-09T07:51:33;8.80;63.50
48043;DHT22;33988;47.992;8.820;2023-01-09T07:54:00;8.80;63.70
48043;DHT22;33988;47.992;8.820;2023-01-09T07:56:29;8.80;63.90
48043;DHT22;33988;47.992;8.820;2023-01-09T07:58:58;8.80;64.00
48043;DHT22;33988;47.992;8.820;2023-01-09T08:01:27;8.90;64.10
48043;DHT22;33988;47.992;8.820;2023-01-09T08:03:56;8.80;64.10
48043;DHT22;33988;47.992;8.820;2023-01-09T08:06:23;8.90;64.20
48043;DHT22;33988;47.992;8.820;2023-01-09T08:08:50;8.90;64.20
48043;DHT22;33988;47.992;8.820;2023-01-09T08:11:17;8.90;64.10
48043;DHT22;33988;47.992;8.820;2023-01-09T08:13:46;8.90;64.10
48043;DHT22;33988;47.992;8.820;2023-01-09T08:16:14;8.90;64.10
48043;DHT22;33988;47.992;8.820;2023-01-09T08:18:41;9.00;64.20
48043;DHT22;33988;47.992;8.820;2023-01-09T08:21:08;9.00;64.20
48043;DHT22;33988;47.992;8.820;2023-01-09T08:23:36;9.00;64.30
48043;DHT22;33988;47.992;8.820;2023-01-09T08:26:04;9.00;64.30
48043;DHT22;33988;47.992;8.820;2023-01-09T08:28:33;9.10;64.50
48043;DHT22;33988;47.992;8.820;2023-01-09T08:31:00;9.20;64.90
48043;DHT22;33988;47.992;8.820;2023-01-09T08:33:27;9.30;64.90
48043;DHT22;33988;47.992;8.820;2023-01-09T08:35:57;9.40;64.90
48043;DHT22;33988;47.992;8.820;2023-01-09T08:38:24;9.60;64.90
48043;DHT22;33988;47.992;8.820;2023-01-09T08:40:51;9.60;64.60
48043;DHT22;33988;47.992;8.820;2023-01-09T08:43:18;9.80;64.30
48043;DHT22;33988;47.992;8.820;2023-01-09T08:46:16;9.80;64.00
48043;DHT22;33988;47.992;8.820;2023-01-09T08:49:03;9.90;63.70
48043;DHT22;33988;47.992;8.820;2023-01-09T08:51:33;9.90;63.60
48043;DHT22;33988;47.992;8.820;2023-01-09T08:53:59;10.00;63.60
48043;DHT22;33988;47.992;8.820;2023-01-09T08:56:26;10.00;63.40
48043;DHT22;33988;47.992;8.820;2023-01-09T08:58:53;10.00;63.30
48043;DHT22;33988;47.992;8.820;2023-01-09T09:01:20;10.00;63.30
48043;DHT22;33988;47.992;8.820;2023-01-09T09:03:49;10.00;63.30
48043;DHT22;33988;47.992;8.820;2023-01-09T09:06:16;10.00;63.20
48043;DHT22;33988;47.992;8.820;2023-01-09T09:08:43;10.00;63.10
48043;DHT22;33988;47.992;8.820;2023-01-09T09:11:10;10.00;63.10
48043;DHT22;33988;47.992;8.820;2023-01-09T09:13:41;10.00;63.00
48043;DHT22;33988;47.992;8.820;2023-01-09T09:16:08;10.00;63.00
48043;DHT22;33988;47.992;8.820;2023-01-09T09:18:37;10.10;63.20
48043;DHT22;33988;47.992;8.820;2023-01-09T09:21:05;10.10;63.10
48043;DHT22;33988;47.992;8.820;2023-01-09T09:23:32;10.20;63.00
48043;DHT22;33988;47.992;8.820;2023-01-09T09:26:02;10.10;62.90
48043;DHT22;33988;47.992;8.820;2023-01-09T09:28:29;10.20;62.90
48043;DHT22;33988;47.992;8.820;2023-01-09T09:30:58;10.20;62.60
48043;DHT22;33988;47.992;8.820;2023-01-09T09:33:25;10.20;62.60
48043;DHT22;33988;47.992;8.820;2023-01-09T09:35:52;10.30;62.60
48043;DHT22;33988;47.992;8.820;2023-01-09T09:38:21;10.30;62.60
48043;DHT22;33988;47.992;8.820;2023-01-09T09:41:12;10.30;62.50
48043;DHT22;33988;47.992;8.820;2023-01-09T09:53:24;10.30;62.40
48043;DHT22;33988;47.992;8.820;2023-01-09T09:55:53;10.30;61.90
48043;DHT22;33988;47.992;8.820;2023-01-09T09:58:44;10.40;62.20
48043;DHT22;33988;47.992;8.820;2023-01-09T10:01:18;10.40;62.10
48043;DHT22;33988;47.992;8.820;2023-01-09T10:03:52;10.40;62.10
48043;DHT22;33988;47.992;8.820;2023-01-09T10:06:44;10.50;62.80
48043;DHT22;33988;47.992;8.820;2023-01-09T10:12:12;10.50;62.20
48043;DHT22;33988;47.992;8.820;2023-01-09T10:14:46;10.60;61.90
48043;DHT22;33988;47.992;8.820;2023-01-09T10:26:31;10.70;60.90
48043;DHT22;33988;47.992;8.820;2023-01-09T10:32:49;10.60;61.20
48043;DHT22;33988;47.992;8.820;2023-01-09T10:38:16;10.60;61.20
48043;DHT22;33988;47.992;8.820;2023-01-09T10:41:20;10.60;61.30
48043;DHT22;33988;47.992;8.820;2023-01-09T10:46:30;10.50;60.80
48043;DHT22;33988;47.992;8.820;2023-01-09T10:49:11;10.50;60.90
48043;DHT22;33988;47.992;8.820;2023-01-09T10:52:11;10.50;61.00
48043;DHT22;33988;47.992;8.820;2023-01-09T10:54:48;10.50;61.00
48043;DHT22;33988;47.992;8.820;2023-01-09T10:57:42;10.50;61.30
48043;DHT22;33988;47.992;8.820;2023-01-09T11:00:21;10.40;61.20
48043;DHT22;33988;47.992;8.820;2023-01-09T11:02:51;10.50;61.40
48043;DHT22;33988;47.992;8.820;2023-01-09T11:05:25;10.50;61.50
48043;DHT22;33988;47.992;8.820;2023-01-09T11:08:28;10.50;61.60
48043;DHT22;33988;47.992;8.820;2023-01-09T11:10:57;10.60;61.40
48043;DHT22;33988;47.992;8.820;2023-01-09T11:13:33;10.60;61.70
48043;DHT22;33988;47.992;8.820;2023-01-09T11:18:52;10.70;61.80
48043;DHT22;33988;47.992;8.820;2023-01-09T11:24:24;10.80;61.60
48043;DHT22;33988;47.992;8.820;2023-01-09T11:30:12;10.90;61.60
48043;DHT22;33988;47.992;8.820;2023-01-09T11:32:46;10.90;61.20
48043;DHT22;33988;47.992;8.820;2023-01-09T11:35:21;11.00;61.40
48043;DHT22;33988;47.992;8.820;2023-01-09T11:38:44;11.00;61.40
48043;DHT22;33988;47.992;8.820;2023-01-09T11:40:58;11.00;61.50
48043;DHT22;33988;47.992;8.820;2023-01-09T11:43:30;11.10;61.50
48043;DHT22;33988;47.992;8.820;2023-01-09T11:46:08;11.00;61.60
48043;DHT22;33988;47.992;8.820;2023-01-09T11:48:58;11.10;61.60
48043;DHT22;33988;47.992;8.820;2023-01-09T11:51:29;11.20;61.60
48043;DHT22;33988;47.992;8.820;2023-01-09T11:54:35;11.20;61.50
48043;DHT22;33988;47.992;8.820;2023-01-09T11:57:10;11.20;61.30
48043;DHT22;33988;47.992;8.820;2023-01-09T11:59:38;11.20;61.30
48043;DHT22;33988;47.992;8.820;2023-01-09T12:09:05;11.20;61.00
48043;DHT22;33988;47.992;8.820;2023-01-09T12:23:22;11.00;61.40
48043;DHT22;33988;47.992;8.820;2023-01-09T12:26:15;11.00;61.50
48043;DHT22;33988;47.992;8.820;2023-01-09T12:31:59;10.90;61.60
48043;DHT22;33988;47.992;8.820;2023-01-09T12:44:22;10.70;62.20
48043;DHT22;33988;47.992;8.820;2023-01-09T12:47:42;10.70;62.30
48043;DHT22;33988;47.992;8.820;2023-01-09T12:50:41;10.60;62.50
48043;DHT22;33988;47.992;8.820;2023-01-09T12:53:26;10.60;62.50
48043;DHT22;33988;47.992;8.820;2023-01-09T12:56:10;10.60;62.70
48043;DHT22;33988;47.992;8.820;2023-01-09T13:01:22;10.70;63.00
48043;DHT22;33988;47.992;8.820;2023-01-09T13:07:03;10.70;63.10
48043;DHT22;33988;47.992;8.820;2023-01-09T13:09:41;10.70;63.10
48043;DHT22;33988;47.992;8.820;2023-01-09T13:12:17;10.80;63.30
48043;DHT22;33988;47.992;8.820;2023-01-09T13:17:25;10.80;62.90
48043;DHT22;33988;47.992;8.820;2023-01-09T13:22:43;10.90;63.00
48043;DHT22;33988;47.992;8.820;2023-01-09T13:28:29;10.90;62.80
48043;DHT22;33988;47.992;8.820;2023-01-09T13:31:22;10.90;62.60
48043;DHT22;33988;47.992;8.820;2023-01-09T13:34:00;10.90;62.40
48043;DHT22;33988;47.992;8.820;2023-01-09T13:36:37;11.00;62.70
48043;DHT22;33988;47.992;8.820;2023-01-09T13:39:06;11.00;62.80
48043;DHT22;33988;47.992;8.820;2023-01-09T13:41:46;11.00;62.90
48043;DHT22;33988;47.992;8.820;2023-01-09T13:44:34;11.10;62.90
48043;DHT22;33988;47.992;8.820;2023-01-09T13:47:02;11.10;62.90
48043;DHT22;33988;47.992;8.820;2023-01-09T14:08:04;11.10;61.90
48043;DHT22;33988;47.992;8.820;2023-01-09T14:10:36;11.10;61.80
48043;DHT22;33988;47.992;8.820;2023-01-09T14:13:21;11.10;61.70
48043;DHT22;33988;47.992;8.820;2023-01-09T14:16:02;11.10;61.70
48043;DHT22;33988;47.992;8.820;2023-01-09T14:18:34;11.10;61.70
48043;DHT22;33988;47.992;8.820;2023-01-09T14:21:10;11.10;61.80
48043;DHT22;33988;47.992;8.820;2023-01-09T14:24:02;11.10;61.80
48043;DHT22;33988;47.992;8.820;2023-01-09T14:26:47;11.10;61.50
48043;DHT22;33988;47.992;8.820;2023-01-09T14:34:59;11.00;60.90
48043;DHT22;33988;47.992;8.820;2023-01-09T14:37:34;11.00;60.80
48043;DHT22;33988;47.992;8.820;2023-01-09T14:40:15;10.90;60.90
48043;DHT22;33988;47.992;8.820;2023-01-09T14:42:51;10.90;60.70
48043;DHT22;33988;47.992;8.820;2023-01-09T14:45:25;10.90;60.90
48043;DHT22;33988;47.992;8.820;2023-01-09T14:47:57;10.80;61.00
48043;DHT22;33988;47.992;8.820;2023-01-09T14:55:58;10.70;61.10
48043;DHT22;33988;47.992;8.820;2023-01-09T14:58:29;10.70;61.50
48043;DHT22;33988;47.992;8.820;2023-01-09T15:03:44;10.60;61.50
48043;DHT22;33988;47.992;8.820;2023-01-09T15:06:20;10.60;61.50
48043;DHT22;33988;47.992;8.820;2023-01-09T15:11:32;10.40;61.40
48043;DHT22;33988;47.992;8.820;2023-01-09T15:14:01;10.40;61.50
48043;DHT22;33988;47.992;8.820;2023-01-09T15:16:31;10.40;61.70
48043;DHT22;33988;47.992;8.820;2023-01-09T15:19:05;10.40;61.80
48043;DHT22;33988;47.992;8.820;2023-01-09T15:21:33;10.30;61.90
48043;DHT22;33988;47.992;8.820;2023-01-09T15:24:22;10.30;61.90
48043;DHT22;33988;47.992;8.820;2023-01-09T15:27:17;10.30;62.00
48043;DHT22;33988;47.992;8.820;2023-01-09T15:29:53;10.20;62.00
48043;DHT22;33988;47.992;8.820;2023-01-09T15:32:29;10.20;62.10
48043;DHT22;33988;47.992;8.820;2023-01-09T15:34:58;10.20;62.00
48043;DHT22;33988;47.992;8.820;2023-01-09T15:37:32;10.20;62.10
48043;DHT22;33988;47.992;8.820;2023-01-09T15:40:06;10.10;61.80
48043;DHT22;33988;47.992;8.820;2023-01-09T15:42:37;10.10;61.80
48043;DHT22;33988;47.992;8.820;2023-01-09T15:45:37;10.00;61.80
48043;DHT22;33988;47.992;8.820;2023-01-09T15:50:48;9.90;61.90
48043;DHT22;33988;47.992;8.820;2023-01-09T15:53:24;9.90;62.80
48043;DHT22;33988;47.992;8.820;2023-01-09T15:58:37;9.80;62.00
48043;DHT22;33988;47.992;8.820;2023-01-09T16:03:52;9.60;61.90
48043;DHT22;33988;47.992;8.820;2023-01-09T16:06:27;9.50;61.90
48043;DHT22;33988;47.992;8.820;2023-01-09T16:08:57;9.50;62.10
48043;DHT22;33988;47.992;8.820;2023-01-09T16:11:32;9.40;62.20
48043;DHT22;33988;47.992;8.820;2023-01-09T16:14:22;9.40;62.30
48043;DHT22;33988;47.992;8.820;2023-01-09T16:16:51;9.30;62.40
48043;DHT22;33988;47.992;8.820;2023-01-09T16:19:45;9.30;62.40
48043;DHT22;33988;47.992;8.820;2023-01-09T16:22:27;9.30;62.40
48043;DHT22;33988;47.992;8.820;2023-01-09T16:25:01;9.30;62.60
48043;DHT22;33988;47.992;8.820;2023-01-09T16:27:31;9.30;63.60
48043;DHT22;33988;47.992;8.820;2023-01-09T16:30:24;9.20;62.80
48043;DHT22;33988;47.992;8.820;2023-01-09T16:32:54;9.20;63.00
48043;DHT22;33988;47.992;8.820;2023-01-09T16:35:23;9.20;63.00
48043;DHT22;33988;47.992;8.820;2023-01-09T16:37:53;9.20;63.00
48043;DHT22;33988;47.992;8.820;2023-01-09T16:40:24;9.20;63.80
48043;DHT22;33988;47.992;8.820;2023-01-09T16:42:59;9.20;62.90
48043;DHT22;33988;47.992;8.820;2023-01-09T16:45:38;9.10;62.90
48043;DHT22;33988;47.992;8.820;2023-01-09T16:48:19;9.10;62.90
48043;DHT22;33988;47.992;8.820;2023-01-09T16:50:47;9.10;63.00
48043;DHT22;33988;47.992;8.820;2023-01-09T16:53:22;9.10;63.00
48043;DHT22;33988;47.992;8.820;2023-01-09T16:55:53;9.10;63.10
48043;DHT22;33988;47.992;8.820;2023-01-09T16:58:33;9.10;63.10
48043;DHT22;33988;47.992;8.820;2023-01-09T17:01:00;9.10;63.10
48043;DHT22;33988;47.992;8.820;2023-01-09T17:03:27;9.10;63.20
48043;DHT22;33988;47.992;8.820;2023-01-09T17:05:55;9.20;63.30
48043;DHT22;33988;47.992;8.820;2023-01-09T17:11:03;9.20;63.20
48043;DHT22;33988;47.992;8.820;2023-01-09T17:13:30;9.20;63.10
48043;DHT22;33988;47.992;8.820;2023-01-09T17:15:58;9.20;63.10
48043;DHT22;33988;47.992;8.820;2023-01-09T17:18:26;9.20;63.00
48043;DHT22;33988;47.992;8.820;2023-01-09T17:20:57;9.20;63.00
48043;DHT22;33988;47.992;8.820;2023-01-09T17:23:28;9.20;62.90
48043;DHT22;33988;47.992;8.820;2023-01-09T17:25:58;9.10;62.90
48043;DHT22;33988;47.992;8.820;2023-01-09T17:28:48;9.10;62.80
48043;DHT22;33988;47.992;8.820;2023-01-09T17:31:20;9.10;62.90
48043;DHT22;33988;47.992;8.820;2023-01-09T17:33:50;9.10;62.90
48043;DHT22;33988;47.992;8.820;2023-01-09T17:36:30;9.00;62.90
48043;DHT22;33988;47.992;8.820;2023-01-09T17:39:03;9.00;63.00
48043;DHT22;33988;47.992;8.820;2023-01-09T17:41:34;9.00;63.10
48043;DHT22;33988;47.992;8.820;2023-01-09T17:44:04;9.00;63.10
48043;DHT22;33988;47.992;8.820;2023-01-09T17:46:33;8.90;63.00
48043;DHT22;33988;47.992;8.820;2023-01-09T17:49:04;8.90;63.00
48043;DHT22;33988;47.992;8.820;2023-01-09T17:51:34;8.90;63.00
48043;DHT22;33988;47.992;8.820;2023-01-09T17:54:01;8.90;63.00
48043;DHT22;33988;47.992;8.820;2023-01-09T17:56:30;8.90;63.00
48043;DHT22;33988;47.992;8.820;2023-01-09T17:58:59;8.90;63.00
48043;DHT22;33988;47.992;8.820;2023-01-09T18:01:29;8.90;63.80
48043;DHT22;33988;47.992;8.820;2023-01-09T18:03:56;8.80;62.90
48043;DHT22;33988;47.992;8.820;2023-01-09T18:06:23;8.80;62.90
48043;DHT22;33988;47.992;8.820;2023-01-09T18:08:52;8.80;63.00
48043;DHT22;33988;47.992;8.820;2023-01-09T18:11:22;8.80;63.10
48043;DHT22;33988;47.992;8.820;2023-01-09T18:13:51;8.70;63.10
48043;DHT22;33988;47.992;8.820;2023-01-09T18:16:27;8.70;63.10
48043;DHT22;33988;47.992;8.820;2023-01-09T18:18:56;8.70;63.10
48043;DHT22;33988;47.992;8.820;2023-01-09T18:21:25;8.70;63.20
48043;DHT22;33988;47.992;8.820;2023-01-09T18:23:54;8.70;63.20
48043;DHT22;33988;47.992;8.820;2023-01-09T18:26:22;8.70;63.30
48043;DHT22;33988;47.992;8.820;2023-01-09T18:28:53;8.70;63.30
48043;DHT22;33988;47.992;8.820;2023-01-09T18:31:22;8.70;63.30
48043;DHT22;33988;47.992;8.820;2023-01-09T18:33:57;8.70;63.40
48043;DHT22;33988;47.992;8.820;2023-01-09T18:36:28;8.60;63.40
48043;DHT22;33988;47.992;8.820;2023-01-09T18:38:59;8.60;63.40
48043;DHT22;33988;47.992;8.820;2023-01-09T18:41:27;8.60;63.50
48043;DHT22;33988;47.992;8.820;2023-01-09T18:43:58;8.60;63.50
48043;DHT22;33988;47.992;8.820;2023-01-09T18:46:29;8.70;63.50
48043;DHT22;33988;47.992;8.820;2023-01-09T18:49:02;8.70;63.50
48043;DHT22;33988;47.992;8.820;2023-01-09T18:51:35;8.70;63.40
48043;DHT22;33988;47.992;8.820;2023-01-09T18:54:03;8.60;63.30
48043;DHT22;33988;47.992;8.820;2023-01-09T18:56:30;8.60;63.30
48043;DHT22;33988;47.992;8.820;2023-01-09T18:58:57;8.60;63.30
48043;DHT22;33988;47.992;8.820;2023-01-09T19:01:25;8.60;63.40
48043;DHT22;33988;47.992;8.820;2023-01-09T19:03:55;8.60;63.50
48043;DHT22;33988;47.992;8.820;2023-01-09T19:06:27;8.60;63.60
48043;DHT22;33988;47.992;8.820;2023-01-09T19:08:59;8.60;63.50
48043;DHT22;33988;47.992;8.820;2023-01-09T19:11:26;8.60;63.50
48043;DHT22;33988;47.992;8.820;2023-01-09T19:13:53;8.60;63.50